Time;durP1;ratioP1;P1;durP2;ratioP2;P2;SDS_P1;SDS_P2;PMS_P1;PMS_P2;Temp;Humidity;BMP_temperature;BMP_pressure;BME280_temperature;BME280_humidity;BME280_pressure;Samples;Min_cycle;Max_cycle;Signal;HPM_P1;HPM_P2
2020/12/26 00:01:35;;;;;;;10.30;4.25;;;16.30;60.40;;;;;;5008877;28;20077;-73
2020/12/26 00:04:03;;;;;;;4.97;2.85;;;16.30;59.90;;;;;;5012542;28;20610;-73
2020/12/26 00:06:30;;;;;;;5.05;2.85;;;16.30;60.10;;;;;;5009168;28;20034;-72
2020/12/26 00:08:56;;;;;;;4.57;3.90;;;16.30;60.00;;;;;;5013896;28;20029;-72
2020/12/26 00:11:23;;;;;;;6.97;4.03;;;16.40;59.30;;;;;;5013117;28;20088;-72
2020/12/26 00:13:52;;;;;;;4.63;3.25;;;16.20;62.00;;;;;;5015091;28;20464;-72
2020/12/26 00:16:19;;;;;;;7.05;2.58;;;16.40;59.40;;;;;;5011259;28;20041;-71
2020/12/26 00:18:46;;;;;;;6.15;2.40;;;16.40;61.30;;;;;;5016879;28;20036;-72
2020/12/26 00:21:15;;;;;;;5.43;2.17;;;16.10;63.10;;;;;;5016658;28;20022;-72
2020/12/26 00:23:42;;;;;;;5.18;2.55;;;16.00;62.70;;;;;;5017182;28;20361;-72
2020/12/26 00:26:08;;;;;;;5.07;2.50;;;15.90;63.70;;;;;;5016218;28;20017;-73
2020/12/26 00:28:35;;;;;;;3.28;2.38;;;16.00;63.20;;;;;;5010363;28;20041;-73
2020/12/26 00:31:05;;;;;;;3.97;3.00;;;15.90;63.10;;;;;;5009748;28;20144;-72
2020/12/26 00:33:31;;;;;;;6.70;4.25;;;15.90;63.00;;;;;;5017505;28;20112;-72
2020/12/26 00:35:58;;;;;;;3.08;1.88;;;15.80;64.50;;;;;;5009195;28;20111;-72
2020/12/26 00:38:26;;;;;;;5.97;3.28;;;15.80;64.30;;;;;;5008052;28;20471;-71
2020/12/26 00:40:52;;;;;;;3.97;2.50;;;15.90;61.50;;;;;;5011841;28;20022;-72
2020/12/26 00:43:18;;;;;;;3.80;3.00;;;15.80;63.50;;;;;;5024852;28;20355;-72
2020/12/26 00:45:45;;;;;;;3.20;1.65;;;15.80;63.00;;;;;;5016385;28;20017;-71
2020/12/26 00:48:11;;;;;;;7.15;2.70;;;15.90;63.10;;;;;;5016037;28;20030;-73
2020/12/26 00:50:38;;;;;;;4.70;2.10;;;15.70;63.00;;;;;;5020123;28;20096;-73
2020/12/26 00:53:04;;;;;;;5.22;2.22;;;15.90;62.20;;;;;;5014414;28;20104;-72
2020/12/26 00:55:31;;;;;;;4.50;2.35;;;15.70;62.70;;;;;;5011538;28;20084;-73
2020/12/26 00:57:57;;;;;;;5.35;3.38;;;15.80;62.50;;;;;;5014268;28;20033;-72
2020/12/26 01:00:24;;;;;;;11.82;6.43;;;15.70;63.00;;;;;;5009900;28;20026;-72
2020/12/26 01:02:50;;;;;;;7.05;3.25;;;15.80;63.00;;;;;;5011459;28;20034;-70
2020/12/26 01:05:17;;;;;;;11.90;6.05;;;15.70;64.50;;;;;;5006775;28;20026;-71
2020/12/26 01:07:43;;;;;;;6.95;4.32;;;15.50;64.30;;;;;;5010445;28;20125;-72
2020/12/26 01:10:09;;;;;;;4.90;3.20;;;15.60;64.40;;;;;;5014012;28;20047;-71
2020/12/26 01:12:36;;;;;;;13.93;6.18;;;15.70;63.70;;;;;;5012094;28;20105;-72
2020/12/26 01:15:03;;;;;;;5.10;3.78;;;15.60;63.10;;;;;;5012949;28;20037;-71
2020/12/26 01:17:29;;;;;;;4.78;2.58;;;15.70;62.70;;;;;;5013163;28;20026;-72
2020/12/26 01:19:56;;;;;;;5.78;3.72;;;15.80;62.30;;;;;;5010678;28;20033;-72
2020/12/26 01:22:22;;;;;;;9.75;6.07;;;15.50;64.00;;;;;;5008188;28;20026;-72
2020/12/26 01:24:49;;;;;;;10.32;4.72;;;15.40;62.70;;;;;;5030414;28;20087;-72
2020/12/26 01:27:15;;;;;;;4.00;2.47;;;15.60;63.70;;;;;;5003036;28;20037;-73
2020/12/26 01:29:42;;;;;;;7.25;3.63;;;15.70;64.40;;;;;;5008303;28;20034;-72
2020/12/26 01:32:08;;;;;;;7.50;4.70;;;15.80;63.20;;;;;;5012691;28;20032;-73
2020/12/26 01:34:34;;;;;;;7.28;3.40;;;15.70;63.30;;;;;;5008071;28;20057;-73
2020/12/26 01:37:02;;;;;;;6.85;3.53;;;15.60;64.00;;;;;;5012738;28;20034;-72
2020/12/26 01:39:28;;;;;;;21.73;19.02;;;15.60;64.60;;;;;;5025301;28;20026;-72
2020/12/26 01:41:55;;;;;;;7.05;4.20;;;15.50;64.70;;;;;;5008081;28;20052;-73
2020/12/26 01:44:23;;;;;;;7.00;3.72;;;15.50;65.30;;;;;;5013072;28;20111;-73
2020/12/26 01:46:53;;;;;;;4.82;4.07;;;15.50;65.80;;;;;;5009259;28;20352;-72
2020/12/26 01:49:23;;;;;;;5.15;4.32;;;15.70;66.10;;;;;;5010453;28;20034;-72
2020/12/26 01:51:50;;;;;;;11.70;3.63;;;15.70;64.30;;;;;;5010520;28;20030;-73
2020/12/26 01:54:18;;;;;;;5.63;3.22;;;15.60;65.40;;;;;;5015498;28;20021;-75
2020/12/26 01:56:45;;;;;;;7.13;4.22;;;15.70;67.20;;;;;;5012154;28;20721;-73
2020/12/26 01:59:12;;;;;;;5.47;3.08;;;15.70;65.50;;;;;;5021618;28;20349;-73
2020/12/26 02:01:43;;;;;;;5.72;3.30;;;15.50;65.50;;;;;;5013713;28;20022;-73
2020/12/26 02:04:12;;;;;;;11.13;5.05;;;15.60;65.90;;;;;;5022087;28;20030;-74
2020/12/26 02:06:47;;;;;;;4.50;3.13;;;15.60;66.20;;;;;;5026689;28;20730;-73
2020/12/26 02:09:14;;;;;;;5.40;3.92;;;15.70;67.30;;;;;;5022955;28;20041;-73
2020/12/26 02:11:40;;;;;;;6.10;3.72;;;15.60;66.90;;;;;;5032474;28;20030;-73
2020/12/26 02:14:07;;;;;;;5.90;3.63;;;15.60;67.20;;;;;;5008989;28;20034;-72
2020/12/26 02:16:47;;;;;;;4.68;3.15;;;15.50;67.10;;;;;;5020303;28;20055;-73
2020/12/26 02:19:15;;;;;;;6.95;4.43;;;15.50;68.10;;;;;;5014112;28;20065;-73
2020/12/26 02:21:42;;;;;;;7.47;3.72;;;15.70;68.60;;;;;;5013294;28;20064;-72
2020/12/26 02:24:12;;;;;;;9.77;5.22;;;15.60;67.80;;;;;;5010789;28;20140;-73
2020/12/26 02:26:39;;;;;;;6.22;3.88;;;15.40;68.80;;;;;;5010998;28;20030;-73
2020/12/26 02:29:06;;;;;;;4.85;3.45;;;15.30;67.40;;;;;;4996818;28;20058;-72
2020/12/26 02:31:33;;;;;;;4.80;3.85;;;15.60;68.20;;;;;;5017793;28;20411;-72
2020/12/26 02:34:00;;;;;;;7.93;3.97;;;15.50;67.80;;;;;;5008896;28;20431;-73
2020/12/26 02:36:27;;;;;;;9.25;4.00;;;15.40;68.50;;;;;;5014142;28;20030;-72
2020/12/26 02:38:53;;;;;;;11.82;4.28;;;15.60;70.40;;;;;;5014829;28;20091;-72
2020/12/26 02:41:19;;;;;;;8.88;4.15;;;15.70;69.20;;;;;;5020633;28;20025;-72
2020/12/26 02:43:46;;;;;;;9.13;4.32;;;15.50;67.10;;;;;;5014981;28;20029;-72
2020/12/26 02:46:12;;;;;;;10.13;4.07;;;15.20;67.80;;;;;;5009051;28;20041;-72
2020/12/26 02:48:39;;;;;;;10.77;3.83;;;15.20;69.10;;;;;;5012469;28;20045;-72
2020/12/26 02:51:05;;;;;;;9.10;4.20;;;15.10;69.50;;;;;;5017826;28;20037;-73
2020/12/26 02:53:31;;;;;;;9.27;3.67;;;15.10;68.80;;;;;;5014304;28;20065;-73
2020/12/26 02:55:58;;;;;;;6.45;3.55;;;15.30;69.80;;;;;;5015796;28;20416;-72
2020/12/26 02:58:24;;;;;;;6.60;3.42;;;15.50;70.00;;;;;;5011772;28;20088;-72
2020/12/26 03:00:51;;;;;;;8.98;6.47;;;15.60;68.50;;;;;;5012411;28;20021;-73
2020/12/26 03:03:17;;;;;;;15.35;9.93;;;15.30;69.50;;;;;;5026855;28;20026;-73
2020/12/26 03:05:44;;;;;;;16.83;14.75;;;15.20;67.80;;;;;;5023361;28;20363;-76
2020/12/26 03:08:10;;;;;;;8.10;5.32;;;15.10;70.00;;;;;;5018879;28;20384;-72
2020/12/26 03:10:37;;;;;;;32.20;24.75;;;14.80;70.90;;;;;;5011799;28;20036;-75
2020/12/26 03:13:03;;;;;;;9.13;6.18;;;15.00;70.20;;;;;;5020971;28;20351;-74
2020/12/26 03:15:30;;;;;;;5.78;4.50;;;14.90;70.40;;;;;;5022841;28;20077;-73
2020/12/26 03:17:56;;;;;;;15.70;7.55;;;14.90;71.30;;;;;;5025767;28;20467;-72
2020/12/26 03:20:23;;;;;;;8.82;5.50;;;14.90;71.40;;;;;;5035934;28;20117;-74
2020/12/26 03:22:49;;;;;;;8.63;6.78;;;14.90;71.70;;;;;;5024818;28;20046;-72
2020/12/26 03:25:16;;;;;;;5.43;3.58;;;14.90;73.00;;;;;;5022698;28;20056;-72
2020/12/26 03:27:42;;;;;;;3.60;3.20;;;15.10;71.30;;;;;;5021173;28;20071;-73
2020/12/26 03:30:08;;;;;;;25.33;20.70;;;15.10;70.90;;;;;;5022546;28;20041;-73
2020/12/26 03:32:35;;;;;;;51.88;46.30;;;15.10;73.80;;;;;;5010862;28;20053;-72
2020/12/26 03:35:01;;;;;;;6.55;4.85;;;15.30;72.80;;;;;;5004032;28;20369;-74
2020/12/26 03:37:28;;;;;;;6.50;5.85;;;15.30;73.30;;;;;;5024621;28;20036;-73
2020/12/26 03:39:54;;;;;;;2.67;2.20;;;15.80;74.30;;;;;;5019544;28;20022;-74
2020/12/26 03:42:21;;;;;;;14.57;9.75;;;16.20;74.80;;;;;;5017917;28;20061;-74
2020/12/26 03:44:47;;;;;;;2.63;1.00;;;16.40;73.50;;;;;;5016567;28;20097;-74
2020/12/26 03:47:14;;;;;;;3.03;2.13;;;16.50;75.60;;;;;;5003773;28;20019;-74
2020/12/26 03:49:40;;;;;;;14.07;6.63;;;16.50;75.70;;;;;;5019799;28;20028;-74
2020/12/26 03:52:06;;;;;;;9.07;5.43;;;16.60;75.00;;;;;;5019328;28;20083;-74
2020/12/26 03:54:33;;;;;;;3.15;1.63;;;16.60;74.00;;;;;;5010841;28;20468;-74
2020/12/26 03:56:59;;;;;;;4.50;3.40;;;16.80;74.10;;;;;;5016161;28;20080;-73
2020/12/26 03:59:26;;;;;;;1.17;1.08;;;16.70;73.70;;;;;;5012888;28;20468;-75
2020/12/26 04:01:52;;;;;;;31.25;28.23;;;16.80;73.30;;;;;;5014972;28;20475;-74
2020/12/26 04:04:18;;;;;;;2.00;1.08;;;16.80;73.60;;;;;;5015851;28;20044;-75
2020/12/26 04:06:45;;;;;;;14.75;11.38;;;16.90;73.30;;;;;;5016703;28;20021;-75
2020/12/26 04:09:12;;;;;;;2.35;1.15;;;16.90;72.80;;;;;;5016382;28;20030;-75
2020/12/26 04:11:39;;;;;;;2.75;0.88;;;17.00;73.30;;;;;;5001573;28;20108;-74
2020/12/26 04:14:06;;;;;;;1.40;1.30;;;17.00;72.90;;;;;;5016934;28;20032;-74
2020/12/26 04:16:33;;;;;;;0.60;0.60;;;17.00;72.90;;;;;;5015617;28;20144;-74
2020/12/26 04:18:59;;;;;;;0.88;0.63;;;17.00;73.30;;;;;;5016116;28;20455;-74
2020/12/26 04:21:26;;;;;;;1.00;0.70;;;17.00;73.40;;;;;;5013931;28;20037;-74
2020/12/26 04:23:53;;;;;;;16.10;7.50;;;16.90;73.50;;;;;;5011612;28;20033;-76
2020/12/26 04:26:21;;;;;;;1.80;1.30;;;16.90;73.50;;;;;;5007557;28;20026;-75
2020/12/26 04:28:48;;;;;;;1.27;0.80;;;17.00;73.30;;;;;;5015430;28;20344;-74
2020/12/26 04:31:15;;;;;;;2.72;1.05;;;17.00;73.30;;;;;;5011878;28;20079;-77
2020/12/26 04:33:42;;;;;;;1.30;1.08;;;16.90;73.90;;;;;;5009836;28;20978;-72
2020/12/26 04:36:08;;;;;;;1.02;0.93;;;16.90;74.10;;;;;;5013721;28;20084;-71
2020/12/26 04:38:35;;;;;;;8.32;1.73;;;16.90;73.80;;;;;;5011544;28;20061;-74
2020/12/26 04:41:02;;;;;;;1.65;0.82;;;16.90;74.30;;;;;;5007960;28;20034;-72
2020/12/26 04:43:29;;;;;;;4.07;1.50;;;16.80;74.60;;;;;;5010987;28;20022;-73
2020/12/26 04:45:57;;;;;;;3.25;1.10;;;16.80;74.60;;;;;;5008995;28;20022;-71
2020/12/26 04:48:25;;;;;;;4.50;1.08;;;16.90;74.40;;;;;;5009956;28;20045;-71
2020/12/26 04:51:04;;;;;;;2.25;1.00;;;16.90;74.10;;;;;;5008914;28;20474;-70
2020/12/26 04:53:34;;;;;;;5.55;1.70;;;16.90;73.20;;;;;;5013158;28;20033;-72
2020/12/26 04:56:04;;;;;;;3.78;1.60;;;17.00;73.60;;;;;;5014480;28;20034;-72
2020/12/26 04:58:30;;;;;;;7.85;1.58;;;17.00;73.40;;;;;;5011304;28;20042;-72
2020/12/26 05:00:57;;;;;;;10.80;2.70;;;17.10;73.40;;;;;;5023096;28;20360;-71
2020/12/26 05:03:28;;;;;;;10.43;2.03;;;17.10;73.60;;;;;;5010499;28;20029;-71
2020/12/26 05:06:16;;;;;;;8.45;1.90;;;17.00;73.40;;;;;;5013751;28;20113;-71
2020/12/26 05:08:42;;;;;;;14.60;2.65;;;17.10;73.60;;;;;;5013598;28;20026;-71
2020/12/26 05:11:08;;;;;;;10.60;2.67;;;17.10;73.20;;;;;;5015572;28;20025;-72
2020/12/26 05:13:44;;;;;;;5.70;2.13;;;17.10;73.40;;;;;;5014776;28;20037;-72
2020/12/26 05:16:10;;;;;;;11.15;4.28;;;17.20;73.50;;;;;;5021218;28;20033;-73
2020/12/26 05:18:38;;;;;;;12.38;2.97;;;17.10;73.00;;;;;;5014447;28;20028;-71
2020/12/26 05:21:05;;;;;;;13.98;4.57;;;17.10;72.90;;;;;;5013115;28;20474;-71
2020/12/26 05:23:31;;;;;;;15.63;2.80;;;17.00;73.10;;;;;;5013939;28;20030;-71
2020/12/26 05:25:58;;;;;;;26.23;17.08;;;17.10;73.00;;;;;;5005350;28;20507;-72
2020/12/26 05:28:34;;;;;;;14.55;3.55;;;16.90;72.70;;;;;;5002087;28;20041;-70
2020/12/26 05:31:07;;;;;;;16.05;3.03;;;16.90;73.20;;;;;;5009824;28;20029;-71
2020/12/26 05:33:34;;;;;;;8.25;2.38;;;17.10;73.50;;;;;;5011830;28;20029;-71
2020/12/26 05:36:05;;;;;;;12.30;2.22;;;17.00;73.30;;;;;;5009521;28;20032;-71
2020/12/26 05:38:32;;;;;;;11.05;2.45;;;17.10;73.40;;;;;;5010408;28;20128;-71
2020/12/26 05:41:00;;;;;;;11.77;3.05;;;17.10;73.70;;;;;;5014987;28;20029;-70
2020/12/26 05:43:29;;;;;;;7.90;2.15;;;17.10;73.40;;;;;;5014210;28;20026;-71
2020/12/26 05:45:57;;;;;;;12.30;2.97;;;17.10;73.00;;;;;;5012883;28;20468;-73
2020/12/26 05:48:25;;;;;;;10.35;2.60;;;17.10;73.30;;;;;;5010712;28;20025;-71
2020/12/26 05:50:59;;;;;;;13.23;2.83;;;17.10;72.80;;;;;;5007855;28;20388;-71
2020/12/26 05:53:27;;;;;;;9.27;3.30;;;16.90;73.00;;;;;;5008898;28;20033;-70
2020/12/26 05:55:54;;;;;;;15.18;3.60;;;16.90;73.00;;;;;;5012421;28;20120;-70
2020/12/26 05:58:23;;;;;;;9.48;2.53;;;17.10;73.60;;;;;;5011379;28;20503;-70
2020/12/26 06:00:51;;;;;;;7.30;3.42;;;17.20;72.90;;;;;;5009244;28;20037;-70
2020/12/26 06:03:27;;;;;;;15.32;2.70;;;17.00;73.00;;;;;;5003438;28;20037;-70
2020/12/26 06:05:58;;;;;;;11.45;3.85;;;17.00;73.60;;;;;;5005735;28;20052;-70
2020/12/26 06:08:26;;;;;;;8.27;1.92;;;17.00;73.40;;;;;;5009375;28;20049;-71
2020/12/26 06:10:56;;;;;;;11.85;2.75;;;17.10;73.00;;;;;;5009360;28;20399;-71
2020/12/26 06:13:27;;;;;;;7.43;2.03;;;17.10;73.00;;;;;;5008769;28;20034;-71
2020/12/26 06:15:55;;;;;;;9.85;3.00;;;17.00;73.30;;;;;;5008831;28;20025;-70
2020/12/26 06:18:23;;;;;;;8.65;2.03;;;17.00;73.40;;;;;;5012689;28;20034;-70
2020/12/26 06:20:51;;;;;;;11.63;2.80;;;16.70;73.70;;;;;;5014059;28;20026;-71
2020/12/26 06:23:22;;;;;;;8.45;2.45;;;16.60;74.00;;;;;;5010855;28;20045;-71
2020/12/26 06:25:51;;;;;;;5.55;1.85;;;16.60;74.30;;;;;;5008807;28;20034;-71
2020/12/26 06:28:27;;;;;;;6.95;2.72;;;16.60;74.10;;;;;;5006343;28;20026;-71
2020/12/26 06:31:08;;;;;;;12.98;3.38;;;16.80;74.20;;;;;;5009592;28;20022;-70
2020/12/26 06:33:46;;;;;;;10.00;4.00;;;16.90;73.40;;;;;;5008726;28;20077;-70
2020/12/26 06:36:13;;;;;;;8.20;2.65;;;16.70;74.40;;;;;;5007715;28;21511;-71
2020/12/26 06:38:41;;;;;;;8.18;2.53;;;16.60;74.20;;;;;;5012228;28;20071;-70
2020/12/26 06:41:17;;;;;;;12.60;1.70;;;16.50;74.30;;;;;;5003762;28;20084;-70
2020/12/26 06:43:50;;;;;;;6.72;1.55;;;16.50;74.40;;;;;;5009568;28;20067;-69
2020/12/26 06:46:17;;;;;;;4.25;2.10;;;16.40;74.90;;;;;;5008994;28;20385;-70
2020/12/26 06:48:44;;;;;;;13.80;3.47;;;16.40;74.20;;;;;;5012673;28;20030;-71
2020/12/26 06:51:36;;;;;;;4.72;1.85;;;16.40;74.10;;;;;;5012348;28;20464;-71
2020/12/26 06:54:12;;;;;;;6.72;2.22;;;16.30;74.70;;;;;;5009018;28;20076;-71
2020/12/26 06:56:41;;;;;;;6.82;2.53;;;16.50;74.30;;;;;;5013958;28;20407;-71
2020/12/26 06:59:11;;;;;;;12.68;3.60;;;16.50;73.70;;;;;;5006541;28;20113;-70
2020/12/26 07:01:47;;;;;;;10.18;2.47;;;16.40;74.60;;;;;;5009984;28;20026;-71
2020/12/26 07:04:22;;;;;;;6.78;2.83;;;16.60;73.60;;;;;;5008166;28;20312;-71
2020/12/26 07:06:56;;;;;;;13.98;3.08;;;16.40;73.90;;;;;;5009014;28;20014;-71
2020/12/26 07:09:37;;;;;;;9.18;2.42;;;16.40;74.00;;;;;;5008661;28;20030;-71
2020/12/26 07:12:08;;;;;;;21.83;4.28;;;16.40;74.10;;;;;;5013322;28;20156;-70
2020/12/26 07:14:38;;;;;;;15.20;4.40;;;16.40;74.70;;;;;;5014469;28;20026;-70
2020/12/26 07:17:25;;;;;;;15.05;4.05;;;16.30;74.20;;;;;;5014336;28;20026;-70
2020/12/26 07:19:53;;;;;;;11.00;2.00;;;16.60;73.60;;;;;;5010837;28;20063;-71
2020/12/26 07:22:29;;;;;;;19.23;4.03;;;16.40;74.40;;;;;;5008180;28;20025;-70
2020/12/26 07:25:06;;;;;;;15.52;3.65;;;16.70;73.70;;;;;;5012357;28;20042;-71
2020/12/26 07:27:35;;;;;;;16.17;3.95;;;17.00;71.50;;;;;;5013503;28;20014;-71
2020/12/26 07:30:04;;;;;;;20.05;3.47;;;17.00;71.70;;;;;;5012967;28;20506;-70
2020/12/26 07:32:40;;;;;;;14.93;3.40;;;16.90;71.80;;;;;;5010015;28;20034;-70
2020/12/26 07:35:14;;;;;;;15.02;3.35;;;16.80;71.40;;;;;;5009828;28;20026;-71
2020/12/26 07:37:41;;;;;;;23.40;3.72;;;16.60;72.60;;;;;;5010977;28;20041;-70
2020/12/26 07:40:08;;;;;;;15.55;3.10;;;16.50;72.90;;;;;;5013321;28;20037;-70
2020/12/26 07:42:35;;;;;;;25.00;5.18;;;16.50;73.00;;;;;;5008940;28;20034;-70
2020/12/26 07:45:19;;;;;;;19.27;4.28;;;16.50;72.70;;;;;;5007112;28;20110;-72
2020/12/26 07:47:48;;;;;;;19.05;2.83;;;16.60;72.30;;;;;;5008868;28;20022;-71
2020/12/26 07:50:16;;;;;;;23.00;3.85;;;16.60;72.60;;;;;;5005003;28;20464;-71
2020/12/26 07:52:46;;;;;;;20.33;4.75;;;16.40;73.20;;;;;;5010843;28;20026;-70
2020/12/26 07:55:12;;;;;;;26.25;5.57;;;16.50;72.40;;;;;;5007923;28;20022;-70
2020/12/26 07:57:39;;;;;;;26.00;4.63;;;16.50;72.40;;;;;;5012497;28;20018;-70
2020/12/26 08:00:06;;;;;;;27.75;4.88;;;16.60;72.40;;;;;;5012812;28;20042;-71
2020/12/26 08:02:32;;;;;;;18.20;4.68;;;16.80;71.20;;;;;;5013453;28;20329;-70
2020/12/26 08:04:59;;;;;;;26.52;5.72;;;16.70;71.50;;;;;;5011483;28;20356;-71
2020/12/26 08:07:34;;;;;;;32.25;6.85;;;16.80;71.50;;;;;;5011917;28;20022;-71
2020/12/26 08:10:03;;;;;;;25.98;4.90;;;16.70;71.70;;;;;;5011011;28;20037;-71
2020/12/26 08:12:29;;;;;;;30.60;5.72;;;16.70;71.50;;;;;;5007400;28;20033;-71
2020/12/26 08:15:00;;;;;;;24.17;4.38;;;16.80;71.10;;;;;;5011516;28;20049;-71
2020/12/26 08:17:28;;;;;;;12.57;4.22;;;16.60;71.50;;;;;;5015826;28;20558;-70
2020/12/26 08:19:59;;;;;;;36.88;9.38;;;16.50;72.40;;;;;;5009496;28;20029;-71
2020/12/26 08:22:28;;;;;;;13.18;3.83;;;16.40;72.50;;;;;;5013059;28;20092;-71
2020/12/26 08:25:06;;;;;;;13.40;2.88;;;16.30;73.10;;;;;;5005847;28;20045;-70
2020/12/26 08:27:33;;;;;;;23.23;4.22;;;16.20;73.10;;;;;;5013688;28;20033;-71
2020/12/26 08:30:40;;;;;;;16.73;3.90;;;16.30;72.50;;;;;;5010269;28;20117;-72
2020/12/26 08:33:29;;;;;;;22.92;4.97;;;16.20;73.30;;;;;;5031564;28;20034;-76
2020/12/26 08:36:02;;;;;;;30.17;8.18;;;16.40;72.30;;;;;;5017906;28;20037;-69
2020/12/26 08:38:49;;;;;;;29.73;5.70;;;16.30;72.10;;;;;;5023448;28;20091;-71
2020/12/26 08:41:18;;;;;;;20.73;4.47;;;16.40;71.90;;;;;;5014793;28;20077;-71
2020/12/26 08:43:45;;;;;;;29.13;8.43;;;16.30;72.30;;;;;;5014960;28;20029;-71
2020/12/26 08:46:13;;;;;;;33.33;5.53;;;16.30;72.20;;;;;;5015046;28;20459;-70
2020/12/26 08:48:41;;;;;;;25.75;5.80;;;16.50;71.70;;;;;;5015994;28;20041;-72
2020/12/26 08:51:17;;;;;;;26.80;6.80;;;16.50;71.40;;;;;;5014218;28;20021;-71
2020/12/26 08:53:45;;;;;;;25.88;6.45;;;16.40;71.90;;;;;;5014438;28;20032;-70
2020/12/26 08:56:12;;;;;;;16.40;5.38;;;16.40;72.10;;;;;;5015031;28;20022;-72
2020/12/26 08:58:38;;;;;;;15.20;4.07;;;16.40;71.90;;;;;;5014653;28;20370;-70
2020/12/26 09:01:06;;;;;;;24.92;4.60;;;16.30;72.90;;;;;;5014709;28;20037;-70
2020/12/26 09:03:34;;;;;;;25.75;6.85;;;16.40;72.00;;;;;;5005986;28;20451;-70
2020/12/26 09:06:02;;;;;;;23.98;4.68;;;16.50;71.90;;;;;;5013764;28;20030;-71
2020/12/26 09:08:29;;;;;;;25.75;5.85;;;16.40;71.60;;;;;;5012486;28;20041;-71
2020/12/26 09:11:07;;;;;;;24.98;6.97;;;16.70;71.10;;;;;;5007340;28;20079;-69
2020/12/26 09:13:49;;;;;;;26.63;4.68;;;16.50;71.60;;;;;;5016542;28;20026;-70
2020/12/26 09:16:16;;;;;;;21.17;5.97;;;16.40;72.20;;;;;;5018608;28;20037;-70
2020/12/26 09:18:45;;;;;;;19.50;5.38;;;16.40;71.80;;;;;;5014809;28;20298;-70
2020/12/26 09:21:26;;;;;;;23.63;5.57;;;16.40;72.10;;;;;;5008744;28;20054;-70
2020/12/26 09:23:55;;;;;;;18.33;4.78;;;16.40;71.90;;;;;;5015311;28;20034;-70
2020/12/26 09:26:23;;;;;;;20.85;4.80;;;16.30;72.50;;;;;;5015250;28;20026;-70
2020/12/26 09:29:03;;;;;;;25.17;7.15;;;16.40;72.30;;;;;;5020648;28;20030;-70
2020/12/26 09:31:37;;;;;;;26.38;5.30;;;16.40;72.50;;;;;;5013922;28;20030;-70
2020/12/26 09:34:24;;;;;;;35.03;6.82;;;16.40;72.20;;;;;;5018491;28;20034;-70
2020/12/26 09:37:07;;;;;;;32.63;5.28;;;16.70;71.40;;;;;;5009260;28;20029;-70
2020/12/26 09:39:34;;;;;;;29.52;5.35;;;16.70;71.20;;;;;;5019594;28;20028;-72
2020/12/26 09:42:01;;;;;;;24.90;5.32;;;16.60;71.70;;;;;;5018151;28;20029;-71
2020/12/26 09:44:27;;;;;;;25.20;4.63;;;16.60;71.20;;;;;;5013906;28;20022;-71
2020/12/26 09:47:01;;;;;;;26.40;5.65;;;16.60;71.70;;;;;;5013100;28;20085;-70
2020/12/26 09:49:28;;;;;;;21.02;4.05;;;16.60;71.70;;;;;;5014205;28;20021;-70
2020/12/26 09:51:55;;;;;;;27.38;6.25;;;16.50;72.10;;;;;;5013611;28;20037;-70
2020/12/26 09:54:21;;;;;;;24.20;4.50;;;16.40;72.50;;;;;;5014269;28;20030;-70
2020/12/26 09:56:48;;;;;;;35.03;5.70;;;16.50;72.40;;;;;;5010918;28;20119;-70
2020/12/26 09:59:14;;;;;;;27.13;5.15;;;16.50;72.20;;;;;;5014593;28;20026;-70
2020/12/26 10:01:40;;;;;;;30.50;5.03;;;16.60;72.10;;;;;;5013421;28;20065;-70
2020/12/26 10:04:08;;;;;;;34.25;5.65;;;16.80;71.10;;;;;;5014492;28;20030;-70
2020/12/26 10:06:34;;;;;;;34.00;7.55;;;16.80;71.10;;;;;;5012725;28;20363;-70
2020/12/26 10:09:00;;;;;;;35.70;5.55;;;16.50;71.70;;;;;;5012631;28;20096;-70
2020/12/26 10:11:27;;;;;;;34.42;8.40;;;16.70;71.10;;;;;;5012939;28;20320;-70
2020/12/26 10:13:53;;;;;;;37.55;8.00;;;16.80;71.30;;;;;;5011257;28;20121;-70
2020/12/26 10:16:20;;;;;;;37.15;7.40;;;17.00;69.70;;;;;;5013976;28;20392;-70
2020/12/26 10:18:46;;;;;;;33.17;5.57;;;16.90;70.20;;;;;;5000505;28;20038;-70
2020/12/26 10:21:17;;;;;;;35.88;8.30;;;16.70;70.80;;;;;;5012845;28;20076;-70
2020/12/26 10:23:44;;;;;;;28.88;6.43;;;16.80;70.50;;;;;;5015932;28;20136;-70
2020/12/26 10:26:11;;;;;;;36.42;6.63;;;16.60;71.10;;;;;;5015105;28;20026;-70
2020/12/26 10:28:38;;;;;;;35.90;7.18;;;16.70;70.90;;;;;;5023865;28;20052;-70
2020/12/26 10:31:04;;;;;;;30.17;7.43;;;16.80;70.10;;;;;;5021837;28;20108;-70
2020/12/26 10:33:31;;;;;;;35.55;6.65;;;16.90;70.10;;;;;;5022414;28;20037;-70
2020/12/26 10:35:57;;;;;;;34.85;5.97;;;17.00;69.60;;;;;;5015372;28;20022;-70
2020/12/26 10:38:23;;;;;;;34.97;6.18;;;16.90;70.10;;;;;;5016223;28;20120;-70
2020/12/26 10:40:50;;;;;;;40.35;8.13;;;16.70;70.70;;;;;;5018006;28;20029;-70
2020/12/26 10:43:17;;;;;;;34.58;6.32;;;16.60;70.90;;;;;;5016272;28;20033;-70
2020/12/26 10:45:44;;;;;;;34.30;7.10;;;16.80;70.40;;;;;;5041045;28;20033;-72
2020/12/26 10:48:11;;;;;;;23.58;6.30;;;16.60;70.90;;;;;;5022041;28;20029;-70
2020/12/26 10:50:37;;;;;;;30.05;6.03;;;16.60;70.70;;;;;;5017783;28;20022;-71
2020/12/26 10:53:04;;;;;;;31.98;5.88;;;16.70;70.70;;;;;;5017423;28;20092;-70
2020/12/26 10:55:30;;;;;;;31.70;5.72;;;16.60;70.70;;;;;;5015887;28;20036;-70
2020/12/26 10:57:57;;;;;;;32.38;6.25;;;16.50;71.30;;;;;;5015010;28;20053;-70
2020/12/26 11:00:23;;;;;;;19.98;4.97;;;16.80;70.50;;;;;;5014952;28;20026;-70
2020/12/26 11:02:49;;;;;;;33.78;4.88;;;16.70;70.40;;;;;;5017110;28;20014;-70
2020/12/26 11:05:16;;;;;;;33.92;6.28;;;16.60;70.60;;;;;;5016485;28;20029;-70
2020/12/26 11:07:43;;;;;;;37.72;8.00;;;16.60;70.50;;;;;;5017209;28;20017;-70
2020/12/26 11:10:09;;;;;;;33.90;6.68;;;16.70;69.40;;;;;;5015421;28;20451;-70
2020/12/26 11:12:35;;;;;;;31.48;5.68;;;16.60;70.30;;;;;;5017806;28;20423;-70
2020/12/26 11:15:02;;;;;;;26.13;5.70;;;16.60;70.50;;;;;;5017264;28;20129;-70
2020/12/26 11:17:28;;;;;;;35.58;6.18;;;16.70;69.60;;;;;;5016515;28;20087;-70
2020/12/26 11:19:55;;;;;;;44.92;7.32;;;16.70;69.50;;;;;;5016806;28;20080;-70
2020/12/26 11:22:21;;;;;;;27.75;5.45;;;16.60;69.60;;;;;;5015833;28;20036;-70
2020/12/26 11:24:48;;;;;;;26.00;6.40;;;16.50;69.50;;;;;;5014799;28;20076;-70
2020/12/26 11:27:14;;;;;;;27.05;4.93;;;16.60;69.50;;;;;;5014555;28;20045;-70
2020/12/26 11:29:40;;;;;;;30.15;6.82;;;16.50;69.60;;;;;;5015324;28;20248;-70
2020/12/26 11:32:07;;;;;;;26.92;5.43;;;16.50;69.50;;;;;;5014653;28;20483;-70
2020/12/26 11:34:33;;;;;;;21.70;5.18;;;16.30;68.80;;;;;;5010674;28;20036;-70
2020/12/26 11:37:00;;;;;;;19.98;4.38;;;16.30;68.90;;;;;;5015432;28;20049;-70
2020/12/26 11:39:26;;;;;;;32.55;7.32;;;16.30;68.70;;;;;;5022037;28;20037;-70
2020/12/26 11:41:52;;;;;;;26.52;5.28;;;16.20;67.80;;;;;;5001372;28;20072;-70
2020/12/26 11:44:19;;;;;;;22.95;5.10;;;16.10;68.30;;;;;;5016274;28;20022;-70
2020/12/26 11:46:45;;;;;;;32.03;5.22;;;16.10;68.30;;;;;;5015350;28;20424;-70
2020/12/26 11:49:12;;;;;;;25.15;6.55;;;16.20;68.80;;;;;;5016791;28;20044;-70
2020/12/26 11:51:38;;;;;;;19.15;4.32;;;16.10;68.50;;;;;;5016268;28;20022;-70
2020/12/26 11:54:04;;;;;;;20.17;6.22;;;16.10;68.60;;;;;;5018009;28;20081;-70
2020/12/26 11:56:31;;;;;;;19.67;4.43;;;16.10;68.70;;;;;;5016315;28;20037;-70
2020/12/26 11:58:57;;;;;;;19.65;4.75;;;16.10;68.60;;;;;;5010494;28;20080;-70
2020/12/26 12:01:29;;;;;;;14.73;4.13;;;16.10;68.90;;;;;;5009062;28;20123;-70
2020/12/26 12:03:55;;;;;;;21.88;5.43;;;16.00;68.60;;;;;;5014953;28;20049;-71
2020/12/26 12:06:22;;;;;;;20.45;4.15;;;16.00;68.70;;;;;;5021258;28;20087;-70
2020/12/26 12:08:48;;;;;;;23.70;4.20;;;16.00;68.90;;;;;;5004441;28;20463;-70
2020/12/26 12:11:17;;;;;;;24.17;5.32;;;15.80;68.50;;;;;;5014223;28;20434;-70
2020/12/26 12:13:44;;;;;;;15.65;3.63;;;15.90;68.40;;;;;;5014874;28;20021;-70
2020/12/26 12:16:14;;;;;;;15.95;3.63;;;15.90;68.60;;;;;;5016110;28;20038;-70
2020/12/26 12:18:40;;;;;;;19.60;5.03;;;15.90;68.60;;;;;;5013992;28;20080;-70
2020/12/26 12:21:07;;;;;;;20.48;5.32;;;15.90;68.60;;;;;;5015114;28;20030;-71
2020/12/26 12:23:33;;;;;;;19.45;4.10;;;15.80;68.40;;;;;;5013936;28;20523;-70
2020/12/26 12:26:00;;;;;;;14.45;4.30;;;15.80;68.30;;;;;;5014951;28;20444;-70
2020/12/26 12:28:26;;;;;;;14.35;3.90;;;15.80;68.50;;;;;;5015054;28;20029;-70
2020/12/26 12:30:53;;;;;;;18.02;3.92;;;15.70;68.40;;;;;;5014205;28;20040;-70
2020/12/26 12:33:19;;;;;;;18.60;5.65;;;15.70;68.40;;;;;;5015244;28;20152;-70
2020/12/26 12:35:45;;;;;;;18.50;3.95;;;15.60;68.20;;;;;;5015048;28;20092;-70
2020/12/26 12:38:12;;;;;;;19.33;3.65;;;15.50;68.10;;;;;;5014400;28;20044;-70
2020/12/26 12:40:39;;;;;;;21.48;5.18;;;15.40;68.50;;;;;;5013588;28;20092;-70
2020/12/26 12:43:06;;;;;;;27.83;4.88;;;15.40;68.20;;;;;;5013362;28;20042;-70
2020/12/26 12:45:32;;;;;;;18.35;3.20;;;15.30;68.20;;;;;;5015027;28;20081;-70
2020/12/26 12:47:58;;;;;;;16.65;3.58;;;15.20;68.30;;;;;;5013723;28;20101;-70